Open Full Screen Window  High Contrast Mode
Wind Gusting 14 knots
08
July 24, 2017 12:49 PM EDT
Weather Information
Wind Direction
  320 °
Wind Speed
  08 kt (9 mph)
Wind Gust
  14 kt (16 mph)
Altimeter
29.92 in
Visibility
10 SM
Temperature
20° C
68° F
Dewpoint
16° C
61° F
Humidity
78%
1hr Rain Fall
00.10 in.
24hr Rain Fall
00.10 in.
Sky Condition
Missing
VFR

METAR KPOV 241649Z AUTO 32008G14KT 10SM 20/16 A2992 RMK AO2 P0010 T02010161

*Background is not an actual portrayal of the airport.
Missing Cloud Data